Terminal Aerodrome Forecast
Issued by NWS

Home | Current Version | Previous Version | Text Only | Print | Product List | Glossary On
Versions: 1 2 3 4 5 6 7 8 9 10 11 12 13 14 15 16 17 18 19 20 21 22
000
FTUS43 KMPX 280500
TAFRWF
TAF
KRWF 280523Z 2806/2906 14011KT P6SM SCT025 OVC040
     FM281400 14010KT 5SM -FZDZ BR BKN020 OVC035
     FM281800 11005KT 5SM BR OVC015
     FM290000 12006KT P6SM SCT015 OVC035=

USA.gov is the U.S. government's official web portal to all federal, state and local government web resources and services.